Météo Nord-Pas-de-Calais   La météo au plus près de chez vous

Station météorologique

Observations météo à Cassis (13022)

13022003 212 m Dernier relevé à 23:36
22.8°C
Humidité 59 % Vent 8.3 km/h

Journée consultée

Mercredi 2 Septembre 2026

Synthèse de la journée

Périodes de référence en UTC

Température maximale

32.7°C

à 13:06

06h 06h

Température minimale

15.7°C

à 06:36

18h 18h

Rafale maximale

32 km/h

à 16:30

00h 00h

Précipitations

0 mm

Cumul quotidien

06h 06h

Graphiques de la journée

Heure locale Réduire

Données détaillées

Relevés météo

Pas de 6 minutes Afficher les relevés infra-horaires
Relevés météo détaillés à Cassis pour le Mercredi 2 Septembre 2026
Heure Température °C Point de rosée °C Humidité % Vent moyen (raf.), km/h Précipitations mm
23:36 22.8 °C 16.8 °C 69 % 5 km/h (17 km/h) 0 mm0 mm
23:30 23.3 °C 17.1 °C 68 % 4 km/h (10 km/h) 0 mm0 mm
23:24 23.6 °C 16.9 °C 66 % 6 km/h (17 km/h) 0 mm0 mm
23:18 23.9 °C 16.9 °C 65 % 6 km/h (17 km/h) 0 mm0 mm
23:12 24.2 °C 16.7 °C 63 % 7 km/h (19 km/h) 0 mm0 mm
23:06 24.5 °C 16.5 °C 61 % 9 km/h (22 km/h) 0 mm0 mm
23:00 24.5 °C 16.5 °C 61 % 10 km/h (22 km/h) 0 mm0 mm
22:54 24.5 °C 16.2 °C 60 % 12 km/h (25 km/h) 0 mm0 mm
22:48 24.3 °C 16 °C 60 % 11 km/h (25 km/h) 0 mm0 mm
22:42 24.2 °C 15.9 °C 60 % 10 km/h (24 km/h) 0 mm0 mm
22:36 24 °C 15.5 °C 59 % 8 km/h (18 km/h) 0 mm0 mm
22:30 24.2 °C 15.4 °C 58 % 9 km/h (20 km/h) 0 mm0 mm
22:24 24.3 °C 15.2 °C 57 % 10 km/h (20 km/h) 0 mm0 mm
22:18 24.4 °C 15.1 °C 56 % 9 km/h (18 km/h) 0 mm0 mm
22:12 24.3 °C 15 °C 56 % 10 km/h (24 km/h) 0 mm0 mm
22:06 24.3 °C 15 °C 56 % 10 km/h (24 km/h) 0 mm0 mm
22:00 24.4 °C 14.8 °C 55 % 9 km/h (17 km/h) 0 mm0 mm
21:54 24.5 °C 14.9 °C 55 % 9 km/h (21 km/h) 0 mm0 mm
21:48 24.5 °C 15.1 °C 56 % 10 km/h (21 km/h) 0 mm0 mm
21:42 24.5 °C 15.4 °C 57 % 10 km/h (21 km/h) 0 mm0 mm
21:36 24.5 °C 15.4 °C 57 % 11 km/h (23 km/h) 0 mm0 mm
21:30 24.3 °C 15.5 °C 58 % 11 km/h (23 km/h) 0 mm0 mm
21:24 24.3 °C 16 °C 60 % 10 km/h (19 km/h) 0 mm0 mm
21:18 24.2 °C 15.9 °C 60 % 9 km/h (19 km/h) 0 mm0 mm
21:12 24.2 °C 15.9 °C 60 % 9 km/h (18 km/h) 0 mm0 mm
21:06 24.2 °C 16.2 °C 61 % 9 km/h (20 km/h) 0 mm0 mm
21:00 24.4 °C 16.1 °C 60 % 10 km/h (22 km/h) 0 mm0 mm
20:54 24.4 °C 15.9 °C 59 % 11 km/h (22 km/h) 0 mm0 mm
20:48 24.4 °C 15.9 °C 59 % 12 km/h (21 km/h) 0 mm0 mm
20:42 24.3 °C 15.8 °C 59 % 11 km/h (20 km/h) 0 mm0 mm
20:36 24.3 °C 16 °C 60 % 12 km/h (22 km/h) 0 mm0 mm
20:30 24.4 °C 16.4 °C 61 % 14 km/h (22 km/h) 0 mm0 mm
20:24 24.5 °C 16.2 °C 60 % 13 km/h (24 km/h) 0 mm0 mm
20:18 24.5 °C 16.2 °C 60 % 13 km/h (25 km/h) 0 mm0 mm
20:12 24.6 °C 16.1 °C 59 % 13 km/h (23 km/h) 0 mm0 mm
20:06 24.8 °C 15.7 °C 57 % 12 km/h (23 km/h) 0 mm0 mm
20:00 24.9 °C 15.5 °C 56 % 13 km/h (27 km/h) 0 mm0 mm
19:54 25.1 °C 15.1 °C 54 % 13 km/h (28 km/h) 0 mm0 mm
19:48 25.4 °C 15.4 °C 54 % 15 km/h (30 km/h) 0 mm0 mm
19:42 25.5 °C 15.2 °C 53 % 16 km/h (29 km/h) 0 mm0 mm
19:36 25.6 °C 15.3 °C 53 % 15 km/h (29 km/h) 0 mm0 mm
19:30 25.8 °C 15.5 °C 53 % 13 km/h (26 km/h) 0 mm0 mm
19:24 25.9 °C 15.6 °C 53 % 13 km/h (25 km/h) 0 mm0 mm
19:18 26.1 °C 15.5 °C 52 % 14 km/h (28 km/h) 0 mm0 mm
19:12 26.4 °C 15.4 °C 51 % 13 km/h (24 km/h) 0 mm0 mm
19:06 26.7 °C 15.1 °C 49 % 13 km/h (24 km/h) 0 mm0 mm
19:00 27 °C 15.1 °C 48 % 14 km/h (27 km/h) 0 mm0 mm
18:54 27.2 °C 14.9 °C 47 % 14 km/h (27 km/h) 0 mm0 mm
18:48 27.3 °C 14.7 °C 46 % 13 km/h (26 km/h) 0 mm0 mm
18:42 27.5 °C 14.5 °C 45 % 13 km/h (23 km/h) 0 mm0 mm
18:36 27.8 °C 14.4 °C 44 % 13 km/h (27 km/h) 0 mm0 mm
18:30 28.1 °C 14.3 °C 43 % 13 km/h (26 km/h) 0 mm0 mm
18:24 28.5 °C 14.7 °C 43 % 14 km/h (26 km/h) 0 mm0 mm
18:18 28.8 °C 15 °C 43 % 14 km/h (26 km/h) 0 mm0 mm
18:12 29 °C 15.2 °C 43 % 13 km/h (26 km/h) 0 mm0 mm
18:06 29.1 °C 15.2 °C 43 % 13 km/h (26 km/h) 0 mm0 mm
18:00 29.4 °C 15.5 °C 43 % 14 km/h (30 km/h) 0 mm0 mm
17:54 29.5 °C 15.6 °C 43 % 15 km/h (30 km/h) 0 mm0 mm
17:48 29.8 °C 15.5 °C 42 % 14 km/h (25 km/h) 0 mm0 mm
17:42 30.1 °C 15.4 °C 41 % 13 km/h (24 km/h) 0 mm0 mm
17:36 30.3 °C 16 °C 42 % 11 km/h (23 km/h) 0 mm0 mm
17:30 30.5 °C 15.8 °C 41 % 10 km/h (21 km/h) 0 mm0 mm
17:24 30.4 °C 15.7 °C 41 % 12 km/h (22 km/h) 0 mm0 mm
17:18 30.2 °C 16.2 °C 43 % 13 km/h (22 km/h) 0 mm0 mm
17:12 30 °C 16.1 °C 43 % 14 km/h (23 km/h) 0 mm0 mm
17:06 30.3 °C 16.3 °C 43 % 14 km/h (23 km/h) 0 mm0 mm
17:00 30.7 °C 16.3 °C 42 % 11 km/h (20 km/h) 0 mm0 mm
16:54 31 °C 16.2 °C 41 % 10 km/h (20 km/h) 0 mm0 mm
16:48 30.8 °C 16 °C 41 % 13 km/h (24 km/h) 0 mm0 mm
16:42 30.7 °C 15.5 °C 40 % 14 km/h (23 km/h) 0 mm0 mm
16:36 30.9 °C 16.1 °C 41 % 14 km/h (27 km/h) 0 mm0 mm
16:30 30.8 °C 16 °C 41 % 16 km/h (32 km/h) 0 mm0 mm
16:24 31.2 °C 15.6 °C 39 % 17 km/h (29 km/h) 0 mm0 mm
16:18 31.4 °C 15.4 °C 38 % 17 km/h (28 km/h) 0 mm0 mm
16:12 31.9 °C 14.5 °C 35 % 14 km/h (24 km/h) 0 mm0 mm
16:06 32.4 °C 15.4 °C 36 % 9 km/h (22 km/h) 0 mm0 mm
16:00 32.4 °C 14.5 °C 34 % 9 km/h (20 km/h) 0 mm0 mm
15:54 32.4 °C 15 °C 35 % 12 km/h (27 km/h) 0 mm0 mm
15:48 32.3 °C 14.9 °C 35 % 13 km/h (27 km/h) 0 mm0 mm
15:42 32.3 °C 14.4 °C 34 % 12 km/h (26 km/h) 0 mm0 mm
15:36 32.2 °C 14.8 °C 35 % 12 km/h (25 km/h) 0 mm0 mm
15:30 32.1 °C 14.3 °C 34 % 14 km/h (25 km/h) 0 mm0 mm
15:24 32.1 °C 13.8 °C 33 % 14 km/h (26 km/h) 0 mm0 mm
15:18 32.2 °C 14.8 °C 35 % 10 km/h (21 km/h) 0 mm0 mm
15:12 32.2 °C 14.8 °C 35 % 12 km/h (24 km/h) 0 mm0 mm
15:06 32.2 °C 14.8 °C 35 % 12 km/h (24 km/h) 0 mm0 mm
15:00 32.3 °C 14.9 °C 35 % 10 km/h (24 km/h) 0 mm0 mm
14:54 32.1 °C 15.1 °C 36 % 9 km/h (21 km/h) 0 mm0 mm
14:48 31.9 °C 15.4 °C 37 % 13 km/h (24 km/h) 0 mm0 mm
14:42 31.6 °C 15.5 °C 38 % 14 km/h (25 km/h) 0 mm0 mm
14:36 31.7 °C 14.8 °C 36 % 15 km/h (26 km/h) 0 mm0 mm
14:30 31.8 °C 14.9 °C 36 % 15 km/h (25 km/h) 0 mm0 mm
14:24 31.7 °C 14.8 °C 36 % 13 km/h (27 km/h) 0 mm0 mm
14:18 31.5 °C 14.6 °C 36 % 13 km/h (27 km/h) 0 mm0 mm
14:12 31.5 °C 14.6 °C 36 % 14 km/h (27 km/h) 0 mm0 mm
14:06 31.6 °C 14.3 °C 35 % 14 km/h (26 km/h) 0 mm0 mm
14:00 31.8 °C 14.4 °C 35 % 15 km/h (26 km/h) 0 mm0 mm
13:54 31.7 °C 15.2 °C 37 % 15 km/h (25 km/h) 0 mm0 mm
13:48 31.4 °C 14.1 °C 35 % 14 km/h (25 km/h) 0 mm0 mm
13:42 31.6 °C 13.8 °C 34 % 13 km/h (24 km/h) 0 mm0 mm
13:36 31.9 °C 14.5 °C 35 % 13 km/h (24 km/h) 0 mm0 mm
13:30 32 °C 14.2 °C 34 % 13 km/h (24 km/h) 0 mm0 mm
13:24 31.8 °C 14.4 °C 35 % 14 km/h (23 km/h) 0 mm0 mm
13:18 32.3 °C 14.9 °C 35 % 14 km/h (23 km/h) 0 mm0 mm
13:12 32.5 °C 15.1 °C 35 % 12 km/h (22 km/h) 0 mm0 mm
13:06 32.7 °C 15.2 °C 35 % 9 km/h (18 km/h) 0 mm0 mm
13:00 32.5 °C 15.1 °C 35 % 8 km/h (18 km/h) 0 mm0 mm
12:54 32.2 °C 14.8 °C 35 % 8 km/h (19 km/h) 0 mm0 mm
12:48 32.4 °C 15 °C 35 % 8 km/h (19 km/h) 0 mm0 mm
12:42 32.5 °C 14.6 °C 34 % 9 km/h (18 km/h) 0 mm0 mm
12:36 32.3 °C 14.4 °C 34 % 10 km/h (19 km/h) 0 mm0 mm
12:30 32.1 °C 13.8 °C 33 % 7 km/h (14 km/h) 0 mm0 mm
12:24 32 °C 12.3 °C 30 % 6 km/h (15 km/h) 0 mm0 mm
12:18 32 °C 12.3 °C 30 % 8 km/h (17 km/h) 0 mm0 mm
12:12 32 °C 11.7 °C 29 % 8 km/h (17 km/h) 0 mm0 mm
12:06 32.1 °C 12.3 °C 30 % 9 km/h (19 km/h) 0 mm0 mm
12:00 32.1 °C 12.3 °C 30 % 10 km/h (23 km/h) 0 mm0 mm
11:54 31.7 °C 12 °C 30 % 10 km/h (23 km/h) 0 mm0 mm
11:48 31.3 °C 11.7 °C 30 % 11 km/h (22 km/h) 0 mm0 mm
11:42 31.3 °C 12.6 °C 32 % 11 km/h (21 km/h) 0 mm0 mm
11:36 31.2 °C 12.5 °C 32 % 10 km/h (21 km/h) 0 mm0 mm
11:30 31.1 °C 12.9 °C 33 % 12 km/h (22 km/h) 0 mm0 mm
11:24 30.9 °C 12.3 °C 32 % 14 km/h (25 km/h) 0 mm0 mm
11:18 30.7 °C 12.1 °C 32 % 12 km/h (22 km/h) 0 mm0 mm
11:12 30.7 °C 13 °C 34 % 11 km/h (22 km/h) 0 mm0 mm
11:06 30.3 °C 13.6 °C 36 % 10 km/h (19 km/h) 0 mm0 mm
11:00 29.8 °C 13.1 °C 36 % 8 km/h (16 km/h) 0 mm0 mm
10:54 28.4 °C 14.6 °C 43 % 4 km/h (12 km/h) 0 mm0 mm
10:48 27.7 °C 16.9 °C 52 % 3 km/h (6 km/h) 0 mm0 mm
10:42 27.9 °C 17.4 °C 53 % 3 km/h (9 km/h) 0 mm0 mm
10:36 28.4 °C 17.6 °C 52 % 4 km/h (10 km/h) 0 mm0 mm
10:30 28.6 °C 16.8 °C 49 % 7 km/h (13 km/h) 0 mm0 mm
10:24 29.1 °C 17.9 °C 51 % 6 km/h (13 km/h) 0 mm0 mm
10:18 29.5 °C 17.3 °C 48 % 3 km/h (11 km/h) 0 mm0 mm
10:12 29.8 °C 14.4 °C 39 % 4 km/h (12 km/h) 0 mm0 mm
10:06 29.5 °C 14.9 °C 41 % 4 km/h (12 km/h) 0 mm0 mm
10:00 28.7 °C 15.2 °C 44 % 4 km/h (9 km/h) 0 mm0 mm
09:54 28.1 °C 14.3 °C 43 % 4 km/h (9 km/h) 0 mm0 mm
09:48 27.3 °C 14 °C 44 % 4 km/h (8 km/h) 0 mm0 mm
09:42 26.8 °C 14.2 °C 46 % 3 km/h (8 km/h) 0 mm0 mm
09:36 26.2 °C 14.6 °C 49 % 2 km/h (8 km/h) 0 mm0 mm
09:30 26.3 °C 16.5 °C 55 % 2 km/h (5 km/h) 0 mm0 mm
09:24 26.2 °C 16.7 °C 56 % 2 km/h (5 km/h) 0 mm0 mm
09:18 26 °C 15.7 °C 53 % 4 km/h (10 km/h) 0 mm0 mm
09:12 25.5 °C 15.5 °C 54 % 6 km/h (11 km/h) 0 mm0 mm
09:06 24.9 °C 15 °C 54 % 4 km/h (11 km/h) 0 mm0 mm
09:00 24.7 °C 16.1 °C 59 % 2 km/h (7 km/h) 0 mm0 mm
08:54 23.8 °C 16.6 °C 64 % 4 km/h (9 km/h) 0 mm0 mm
08:48 23.3 °C 16.6 °C 66 % 5 km/h (11 km/h) 0 mm0 mm
08:42 22.3 °C 17.2 °C 73 % 6 km/h (11 km/h) 0 mm0 mm
08:36 21.5 °C 16.9 °C 75 % 5 km/h (10 km/h) 0 mm0 mm
08:30 20.9 °C 16.9 °C 78 % 2 km/h (8 km/h) 0 mm0 mm
08:24 20.5 °C 15.9 °C 75 % 0 km/h (3 km/h) 0 mm0 mm
08:18 20 °C 16.8 °C 82 % 2 km/h (5 km/h) 0 mm0 mm
08:12 19.3 °C 16.5 °C 84 % 4 km/h (8 km/h) 0 mm0 mm
08:06 18.6 °C 16 °C 85 % 4 km/h (8 km/h) 0 mm0 mm
08:00 18 °C 15.6 °C 86 % 4 km/h (8 km/h) 0 mm0 mm
07:54 17.3 °C 14.9 °C 86 % 3 km/h (6 km/h) 0 mm0 mm
07:48 16.8 °C 14.8 °C 88 % 4 km/h (7 km/h) 0 mm0 mm
07:42 16.4 °C 14.8 °C 90 % 6 km/h (9 km/h) 0 mm0 mm
07:36 16 °C 14.5 °C 91 % 6 km/h (11 km/h) 0 mm0 mm
07:30 15.9 °C 14.4 °C 91 % 5 km/h (11 km/h) 0 mm0 mm
07:24 15.9 °C 14.4 °C 91 % 3 km/h (8 km/h) 0 mm0 mm
07:18 15.9 °C 14.4 °C 91 % 4 km/h (6 km/h) 0 mm0 mm
07:12 15.9 °C 14.4 °C 91 % 4 km/h (6 km/h) 0 mm0 mm
07:06 15.9 °C 14.6 °C 92 % 4 km/h (6 km/h) 0 mm0 mm
07:00 15.8 °C 14.5 °C 92 % 5 km/h (11 km/h) 0 mm0 mm
06:54 15.8 °C 14.5 °C 92 % 8 km/h (11 km/h) 0 mm0 mm
06:48 15.8 °C 14.5 °C 92 % 8 km/h (12 km/h) 0 mm0 mm
06:42 15.8 °C 14.7 °C 93 % 10 km/h (14 km/h) 0 mm0 mm
06:36 15.7 °C 14.4 °C 92 % 10 km/h (13 km/h) 0 mm0 mm
06:30 15.8 °C 14.5 °C 92 % 9 km/h (12 km/h) 0 mm0 mm
06:24 15.8 °C 14.5 °C 92 % 8 km/h (12 km/h) 0 mm0 mm
06:18 15.9 °C 14.8 °C 93 % 7 km/h (9 km/h) 0 mm0 mm
06:12 15.8 °C 14.7 °C 93 % 6 km/h (8 km/h) 0 mm0 mm
06:06 15.8 °C 14.5 °C 92 % 5 km/h (8 km/h) 0 mm0 mm
06:00 15.9 °C 14.8 °C 93 % 6 km/h (10 km/h) 0 mm0 mm
05:54 16 °C 14.9 °C 93 % 7 km/h (10 km/h) 0 mm0 mm
05:48 16 °C 15 °C 94 % 6 km/h (10 km/h) 0 mm0 mm
05:42 16.1 °C 15.1 °C 94 % 7 km/h (10 km/h) 0 mm0 mm
05:36 16.2 °C 15.2 °C 94 % 8 km/h (11 km/h) 0 mm0 mm
05:30 16.2 °C 15.1 °C 93 % 7 km/h (11 km/h) 0 mm0 mm
05:24 16.2 °C 15.1 °C 93 % 3 km/h (8 km/h) 0 mm0 mm
05:18 16.1 °C 15.1 °C 94 % 5 km/h (9 km/h) 0 mm0 mm
05:12 15.9 °C 14.8 °C 93 % 5 km/h (9 km/h) 0 mm0 mm
05:06 15.9 °C 14.6 °C 92 % 3 km/h (7 km/h) 0 mm0 mm
05:00 16 °C 14.9 °C 93 % 3 km/h (5 km/h) 0 mm0 mm
04:54 16.1 °C 14.8 °C 92 % 3 km/h (5 km/h) 0 mm0 mm
04:48 16.1 °C 14.8 °C 92 % 3 km/h (5 km/h) 0 mm0 mm
04:42 16.2 °C 14.9 °C 92 % 2 km/h (4 km/h) 0 mm0 mm
04:36 16.1 °C 14.8 °C 92 % 3 km/h (8 km/h) 0 mm0 mm
04:30 16 °C 14.5 °C 91 % 4 km/h (8 km/h) 0 mm0 mm
04:24 16 °C 14.4 °C 90 % 3 km/h (8 km/h) 0 mm0 mm
04:18 16 °C 14.2 °C 89 % 3 km/h (8 km/h) 0 mm0 mm
04:12 16.1 °C 14.1 °C 88 % 3 km/h (5 km/h) 0 mm0 mm
04:06 16.2 °C 14.2 °C 88 % 3 km/h (5 km/h) 0 mm0 mm
04:00 16.3 °C 14.1 °C 87 % 2 km/h (3 km/h) 0 mm0 mm
03:54 16.4 °C 13.9 °C 85 % 3 km/h (4 km/h) 0 mm0 mm
03:48 16.7 °C 14 °C 84 % 2 km/h (4 km/h) 0 mm0 mm
03:42 16.9 °C 14 °C 83 % 2 km/h (4 km/h) 0 mm0 mm
03:36 17.2 °C 14.1 °C 82 % 3 km/h (6 km/h) 0 mm0 mm
03:30 17.5 °C 14.2 °C 81 % 4 km/h (6 km/h) 0 mm0 mm
03:24 17.8 °C 14.3 °C 80 % 5 km/h (9 km/h) 0 mm0 mm
03:18 18 °C 14.7 °C 81 % 7 km/h (10 km/h) 0 mm0 mm
03:12 18 °C 14.9 °C 82 % 9 km/h (11 km/h) 0 mm0 mm
03:06 17.9 °C 15 °C 83 % 10 km/h (15 km/h) 0 mm0 mm
03:00 17.8 °C 14.9 °C 83 % 11 km/h (15 km/h) 0 mm0 mm
02:54 17.6 °C 14.7 °C 83 % 11 km/h (17 km/h) 0 mm0 mm
02:48 17.4 °C 14.1 °C 81 % 8 km/h (17 km/h) 0 mm0 mm
02:42 17.4 °C 14.1 °C 81 % 4 km/h (7 km/h) 0 mm0 mm
02:36 17.7 °C 14 °C 79 % 4 km/h (5 km/h) 0 mm0 mm
02:30 18.1 °C 13.8 °C 76 % 2 km/h (5 km/h) 0 mm0 mm
02:24 18.6 °C 13.9 °C 74 % 0 km/h (4 km/h) 0 mm0 mm
02:18 18.9 °C 13.7 °C 72 % 4 km/h (10 km/h) 0 mm0 mm
02:12 19.3 °C 13.7 °C 70 % 7 km/h (13 km/h) 0 mm0 mm
02:06 19.5 °C 14.3 °C 72 % 4 km/h (13 km/h) 0 mm0 mm
02:00 20 °C 14.4 °C 70 % 0 km/h (5 km/h) 0 mm0 mm
01:54 20.7 °C 14.6 °C 68 % 2 km/h (5 km/h) 0 mm0 mm
01:48 21.1 °C 14.7 °C 67 % 5 km/h (15 km/h) 0 mm0 mm
01:42 21.2 °C 14.6 °C 66 % 9 km/h (16 km/h) 0 mm0 mm
01:36 21.2 °C 15.1 °C 68 % 10 km/h (19 km/h) 0 mm0 mm
01:30 21.3 °C 15.4 °C 69 % 11 km/h (19 km/h) 0 mm0 mm
01:24 21.2 °C 15.3 °C 69 % 9 km/h (19 km/h) 0 mm0 mm
01:18 21.3 °C 15.2 °C 68 % 8 km/h (19 km/h) 0 mm0 mm
01:12 21.3 °C 14.9 °C 67 % 9 km/h (20 km/h) 0 mm0 mm
01:06 21.4 °C 14.5 °C 65 % 8 km/h (16 km/h) 0 mm0 mm
01:00 21.4 °C 14.1 °C 63 % 8 km/h (16 km/h) 0 mm0 mm
00:54 21.2 °C 13.4 °C 61 % 8 km/h (18 km/h) 0 mm0 mm
00:48 21.1 °C 12.8 °C 59 % 7 km/h (18 km/h) 0 mm0 mm
00:42 21.2 °C 13.1 °C 60 % 5 km/h (18 km/h) 0 mm0 mm
00:36 21.6 °C 13.2 °C 59 % 6 km/h (17 km/h) 0 mm0 mm
00:30 21.5 °C 12.1 °C 55 % 7 km/h (19 km/h) 0 mm0 mm
00:24 21.6 °C 12.2 °C 55 % 6 km/h (15 km/h) 0 mm0 mm
00:18 21.7 °C 12.3 °C 55 % 6 km/h (15 km/h) 0 mm0 mm
00:12 22 °C 12 °C 53 % 6 km/h (18 km/h) 0 mm0 mm
00:06 21.9 °C 11.9 °C 53 % 8 km/h (20 km/h) 0 mm0 mm
00:00 21.5 °C 12.3 °C 56 % 9 km/h (20 km/h) 0 mm0 mm

Données via Météo-France

Relevés météo à Cassis

Cette page rassemble les observations de la station de Cassis : température, humidité, vent, précipitations et pression atmosphérique. Les graphiques facilitent le suivi de la journée, tandis que le tableau donne accès aux mesures horaires et infra-horaires disponibles.

Pour replacer ces mesures dans leur contexte, consultez la climatologie de Cassis ainsi que ses normales et records. Retrouvez aussi la carte des observations météo en temps réel.